createdAt,value
2022-09-28T00:00:42.055Z,98.91
2022-09-28T00:03:09.380Z,98.87
2022-09-28T00:05:35.866Z,98.93
2022-09-28T00:08:02.367Z,98.46
2022-09-28T00:10:28.890Z,98.46
2022-09-28T00:12:55.521Z,98.42
2022-09-28T00:15:22.492Z,98.48
2022-09-28T00:17:48.922Z,98.14
2022-09-28T00:20:17.256Z,98.52
2022-09-28T00:22:43.726Z,98.38
2022-09-28T00:25:10.377Z,98.51
2022-09-28T00:27:36.874Z,98.37
2022-09-28T00:30:04.340Z,98.62
2022-09-28T00:32:30.767Z,98.47
2022-09-28T00:34:57.189Z,98.27
2022-09-28T00:37:23.702Z,98.20
2022-09-28T00:39:50.278Z,98.33
2022-09-28T00:42:26.967Z,98.16
2022-09-28T00:44:54.763Z,98.01
2022-09-28T00:47:32.613Z,98.18
2022-09-28T00:50:05.409Z,97.85
2022-09-28T00:52:38.666Z,97.96
2022-09-28T00:55:09.486Z,98.12
2022-09-28T00:57:38.261Z,98.07
2022-09-28T01:00:06.131Z,98.16
2022-09-28T01:02:32.737Z,98.10
2022-09-28T01:04:59.610Z,98.13
2022-09-28T01:07:26.548Z,98.04
2022-09-28T01:09:54.142Z,98.15
2022-09-28T01:12:20.551Z,98.11
2022-09-28T01:14:47.749Z,98.04
2022-09-28T01:17:17.006Z,98.30
2022-09-28T01:19:55.484Z,98.48
2022-09-28T01:22:53.823Z,98.34
2022-09-28T01:25:41.099Z,98.24
2022-09-28T01:28:19.177Z,98.54
2022-09-28T01:31:09.538Z,98.53
2022-09-28T01:33:44.215Z,98.24
2022-09-28T01:36:28.098Z,98.27
2022-09-28T01:39:02.944Z,98.26
2022-09-28T01:41:31.947Z,98.34
2022-09-28T01:44:07.735Z,98.23
2022-09-28T01:46:44.779Z,98.37
2022-09-28T01:49:18.466Z,98.67
2022-09-28T01:51:52.718Z,98.65
2022-09-28T01:54:26.875Z,98.42
2022-09-28T01:57:25.485Z,98.23
2022-09-28T02:00:07.835Z,98.46
2022-09-28T02:02:42.393Z,98.50
2022-09-28T02:05:24.232Z,98.47
2022-09-28T02:07:59.701Z,98.51
2022-09-28T02:10:35.587Z,98.53
2022-09-28T02:13:08.495Z,98.41
2022-09-28T02:15:49.066Z,98.53
2022-09-28T02:18:15.581Z,98.34
2022-09-28T02:20:47.190Z,98.49
2022-09-28T02:23:15.274Z,98.65
2022-09-28T02:25:50.295Z,98.43
2022-09-28T02:28:16.740Z,98.25
2022-09-28T02:30:44.769Z,98.32
2022-09-28T02:33:26.778Z,98.82
2022-09-28T02:35:53.208Z,98.86
2022-09-28T02:38:19.636Z,98.93
2022-09-28T02:40:57.640Z,98.55
2022-09-28T02:43:33.226Z,98.69
2022-09-28T02:46:28.203Z,98.48
2022-09-28T02:49:21.505Z,98.64
2022-09-28T02:52:25.805Z,98.59
2022-09-28T02:55:19.963Z,98.20
2022-09-28T02:57:49.408Z,98.37
2022-09-28T03:00:20.036Z,98.11
2022-09-28T03:02:52.232Z,97.87
2022-09-28T03:05:22.774Z,98.29
2022-09-28T03:08:11.659Z,98.26
2022-09-28T03:10:44.044Z,97.92
2022-09-28T03:13:13.568Z,98.08
2022-09-28T03:15:45.254Z,97.99
2022-09-28T03:18:14.401Z,98.00
2022-09-28T03:20:40.809Z,97.69
2022-09-28T03:23:23.694Z,97.48
2022-09-28T03:25:50.999Z,97.89
2022-09-28T03:28:17.468Z,97.88
2022-09-28T03:30:43.951Z,97.67
2022-09-28T03:33:10.443Z,97.74
2022-09-28T03:35:36.851Z,98.06
2022-09-28T03:38:03.405Z,97.79
2022-09-28T03:40:29.969Z,97.86
2022-09-28T03:42:56.490Z,97.93
2022-09-28T03:45:22.930Z,98.09
2022-09-28T03:47:49.402Z,97.82
2022-09-28T03:50:16.050Z,97.75
2022-09-28T03:52:42.562Z,97.69
2022-09-28T03:55:09.742Z,97.90
2022-09-28T03:57:36.218Z,97.36
2022-09-28T04:00:04.930Z,97.51
2022-09-28T04:02:31.472Z,97.76
2022-09-28T04:04:57.942Z,97.37
2022-09-28T04:07:26.966Z,97.24
2022-09-28T04:09:56.699Z,96.97
2022-09-28T04:12:23.098Z,97.38
2022-09-28T04:14:49.546Z,97.55
2022-09-28T04:17:15.930Z,97.31
2022-09-28T04:19:42.313Z,97.06
2022-09-28T04:22:09.046Z,97.08
2022-09-28T04:24:35.485Z,97.17
2022-09-28T04:27:20.281Z,97.05
2022-09-28T04:29:46.675Z,97.12
2022-09-28T04:32:13.187Z,97.09
2022-09-28T04:34:43.736Z,96.73
2022-09-28T04:37:10.651Z,96.90
2022-09-28T04:39:37.126Z,97.04
2022-09-28T04:42:03.679Z,97.24
2022-09-28T04:44:30.069Z,97.05
2022-09-28T04:46:56.529Z,97.14
2022-09-28T04:49:24.683Z,97.06
2022-09-28T04:51:51.218Z,96.88
2022-09-28T04:54:17.646Z,96.97
2022-09-28T04:56:44.195Z,96.88
2022-09-28T04:59:10.670Z,96.41
2022-09-28T05:01:37.739Z,96.01
2022-09-28T05:04:04.209Z,96.35
2022-09-28T05:06:30.756Z,96.31
2022-09-28T05:08:57.513Z,96.50
2022-09-28T05:11:24.139Z,95.93
2022-09-28T05:13:50.689Z,96.47
2022-09-28T05:16:17.675Z,95.90
2022-09-28T05:18:44.154Z,96.34
2022-09-28T05:21:12.967Z,96.45
2022-09-28T05:23:40.548Z,96.69
2022-09-28T05:26:07.507Z,96.80
2022-09-28T05:28:34.279Z,97.34
2022-09-28T05:31:02.439Z,96.80
2022-09-28T05:33:29.751Z,96.82
2022-09-28T05:36:01.065Z,96.63
2022-09-28T05:38:29.099Z,97.18
2022-09-28T05:40:55.986Z,97.01
2022-09-28T05:43:22.559Z,96.99
2022-09-28T05:45:54.326Z,97.03
2022-09-28T05:48:22.134Z,96.94
2022-09-28T05:50:52.552Z,97.49
2022-09-28T05:53:19.463Z,97.71
2022-09-28T05:55:46.187Z,97.39
2022-09-28T05:58:12.772Z,97.05
2022-09-28T06:00:39.399Z,96.81
2022-09-28T06:03:09.561Z,96.61
2022-09-28T06:05:38.775Z,96.97
2022-09-28T06:08:06.913Z,97.11
2022-09-28T06:10:33.998Z,96.96
2022-09-28T06:13:00.486Z,97.12
2022-09-28T06:15:29.566Z,97.62
2022-09-28T06:18:00.485Z,97.67
2022-09-28T06:20:28.823Z,97.77
2022-09-28T06:22:55.592Z,97.82
2022-09-28T06:25:23.700Z,97.64
2022-09-28T06:27:55.237Z,97.63
2022-09-28T06:30:22.395Z,97.69
2022-09-28T06:32:52.595Z,97.72
2022-09-28T06:35:19.161Z,97.92
2022-09-28T06:37:45.653Z,97.85
2022-09-28T06:40:12.097Z,97.89
2022-09-28T06:42:38.541Z,97.99
2022-09-28T06:45:05.928Z,98.04
2022-09-28T06:47:33.496Z,98.11
2022-09-28T06:50:00.188Z,98.38
2022-09-28T06:52:26.622Z,98.17
2022-09-28T06:54:53.063Z,97.96
2022-09-28T06:57:19.573Z,98.00
2022-09-28T06:59:46.003Z,98.21
2022-09-28T07:02:14.383Z,97.97
2022-09-28T07:04:44.031Z,97.83
2022-09-28T07:07:11.482Z,98.07
2022-09-28T07:09:43.737Z,97.86
2022-09-28T07:12:13.415Z,97.77
2022-09-28T07:14:47.732Z,97.61
2022-09-28T07:17:15.132Z,97.61
2022-09-28T07:19:41.918Z,97.53
2022-09-28T07:22:08.332Z,97.45
2022-09-28T07:24:34.755Z,97.71
2022-09-28T07:27:04.409Z,97.93
2022-09-28T07:29:30.815Z,98.05
2022-09-28T07:31:57.279Z,98.08
2022-09-28T07:34:24.005Z,97.41
2022-09-28T07:36:51.879Z,97.39
2022-09-28T07:39:18.303Z,97.82
2022-09-28T07:41:44.688Z,97.63
2022-09-28T07:44:11.259Z,97.54
2022-09-28T07:46:38.057Z,97.74
2022-09-28T07:49:11.353Z,98.14
2022-09-28T07:51:38.810Z,97.27
2022-09-28T07:54:06.493Z,97.30
2022-09-28T07:56:34.888Z,97.70
2022-09-28T07:59:01.376Z,96.49
2022-09-28T08:01:28.097Z,96.40
2022-09-28T08:03:56.318Z,95.91
2022-09-28T08:06:23.254Z,95.70
2022-09-28T08:08:50.238Z,95.18
2022-09-28T08:11:20.262Z,95.03
2022-09-28T08:13:46.707Z,95.00
2022-09-28T08:16:13.336Z,94.37
2022-09-28T08:18:39.894Z,93.58
2022-09-28T08:21:24.902Z,94.64
2022-09-28T08:23:51.743Z,93.92
2022-09-28T08:26:18.170Z,93.14
2022-09-28T08:28:45.116Z,92.80
2022-09-28T08:31:11.769Z,92.64
2022-09-28T08:33:38.485Z,92.24
2022-09-28T08:36:06.030Z,90.70
2022-09-28T08:38:32.817Z,91.34
2022-09-28T08:41:17.932Z,90.60
2022-09-28T08:44:11.729Z,89.92
2022-09-28T08:46:49.335Z,88.22
2022-09-28T08:49:25.430Z,88.33
2022-09-28T08:52:04.953Z,88.83
2022-09-28T08:54:54.531Z,89.18
2022-09-28T08:57:25.942Z,86.89
2022-09-28T08:59:55.970Z,86.25
2022-09-28T09:02:29.151Z,86.91
2022-09-28T09:04:56.949Z,86.45
2022-09-28T09:07:23.350Z,86.10
2022-09-28T09:10:11.559Z,86.62
2022-09-28T09:13:03.374Z,87.64
2022-09-28T09:16:14.594Z,88.26
2022-09-28T09:19:12.118Z,86.78
2022-09-28T09:22:01.724Z,85.34
2022-09-28T09:24:42.817Z,84.65
2022-09-28T09:27:37.976Z,84.85
2022-09-28T09:30:11.864Z,85.93
2022-09-28T09:32:41.295Z,84.77
2022-09-28T09:35:33.541Z,84.47
2022-09-28T09:38:19.241Z,85.11
2022-09-28T09:41:02.926Z,83.74
2022-09-28T09:43:58.606Z,83.68
2022-09-28T09:46:49.591Z,84.10
2022-09-28T09:49:17.999Z,83.35
2022-09-28T09:51:53.396Z,84.74
2022-09-28T09:54:30.218Z,84.15
2022-09-28T09:57:03.651Z,80.46
2022-09-28T09:59:35.079Z,80.77
2022-09-28T10:02:11.795Z,80.19
2022-09-28T10:04:46.663Z,79.58
2022-09-28T10:07:23.499Z,80.46
2022-09-28T10:09:52.625Z,78.87
2022-09-28T10:12:21.341Z,79.24
2022-09-28T10:14:47.823Z,77.24
2022-09-28T10:17:20.054Z,76.71
2022-09-28T10:19:46.717Z,75.88
2022-09-28T10:22:20.985Z,76.13
2022-09-28T10:24:51.005Z,74.96
2022-09-28T10:27:21.259Z,74.92
2022-09-28T10:29:57.896Z,74.94
2022-09-28T10:32:26.772Z,74.96
2022-09-28T10:35:10.875Z,74.26
2022-09-28T10:37:49.274Z,74.85
2022-09-28T10:40:30.354Z,74.60
2022-09-28T10:43:01.728Z,73.75
2022-09-28T10:45:35.774Z,74.05
2022-09-28T10:48:06.222Z,72.29
2022-09-28T10:50:32.653Z,74.43
2022-09-28T10:53:19.842Z,74.05
2022-09-28T10:56:08.650Z,74.55
2022-09-28T10:58:40.625Z,75.06
2022-09-28T11:01:12.118Z,75.36
2022-09-28T11:03:49.879Z,72.18
2022-09-28T11:06:24.073Z,71.53
2022-09-28T11:08:50.612Z,70.80
2022-09-28T11:11:20.009Z,72.36
2022-09-28T11:13:55.956Z,72.41
2022-09-28T11:16:30.725Z,73.47
2022-09-28T11:19:02.960Z,73.31
2022-09-28T11:21:34.509Z,71.34
2022-09-28T11:24:24.349Z,71.05
2022-09-28T11:26:56.340Z,71.45
2022-09-28T11:29:41.873Z,72.13
2022-09-28T11:32:13.687Z,70.96
2022-09-28T11:34:59.154Z,70.60
2022-09-28T11:37:41.401Z,71.58
2022-09-28T11:40:10.860Z,69.36
2022-09-28T11:42:52.454Z,70.71
2022-09-28T11:45:47.260Z,69.45
2022-09-28T11:48:22.499Z,69.32
2022-09-28T11:50:56.177Z,67.87
2022-09-28T11:53:36.762Z,68.13
2022-09-28T11:56:36.012Z,68.80
2022-09-28T11:59:14.298Z,70.43
2022-09-28T12:01:47.211Z,68.25
2022-09-28T12:04:24.262Z,70.13
2022-09-28T12:06:58.240Z,69.41
2022-09-28T12:09:35.845Z,69.54
2022-09-28T12:12:06.094Z,69.41
2022-09-28T12:14:38.298Z,68.83
2022-09-28T12:17:26.644Z,70.28
2022-09-28T12:20:00.682Z,74.92
2022-09-28T12:22:40.498Z,79.23
2022-09-28T12:25:16.130Z,83.22
2022-09-28T12:27:50.525Z,85.88
2022-09-28T12:30:25.707Z,90.68
2022-09-28T12:33:05.526Z,93.14
2022-09-28T12:36:02.230Z,93.54
2022-09-28T12:38:37.742Z,93.25
2022-09-28T12:41:23.336Z,93.84
2022-09-28T12:44:13.356Z,94.43
2022-09-28T12:47:09.737Z,93.70
2022-09-28T12:50:36.620Z,94.30
2022-09-28T12:52:50.684Z,95.15
2022-09-28T12:55:54.179Z,96.76
2022-09-28T12:58:29.420Z,97.07
2022-09-28T13:01:20.179Z,97.87
2022-09-28T13:04:13.336Z,97.70
2022-09-28T13:07:06.865Z,98.73
2022-09-28T13:10:02.339Z,98.57
2022-09-28T13:12:59.705Z,98.00
2022-09-28T13:15:42.451Z,97.24
2022-09-28T13:18:34.749Z,96.53
2022-09-28T13:21:09.703Z,94.76
2022-09-28T13:23:42.050Z,94.63
2022-09-28T13:26:12.058Z,95.57
2022-09-28T13:28:39.701Z,93.77
2022-09-28T13:31:07.393Z,93.00
2022-09-28T13:33:41.005Z,94.63
2022-09-28T13:36:28.729Z,95.10
2022-09-28T13:38:59.405Z,94.94
2022-09-28T13:41:40.389Z,97.21
2022-09-28T13:44:12.869Z,98.33
2022-09-28T13:47:20.473Z,98.49
2022-09-28T13:50:17.798Z,98.85
2022-09-28T13:52:50.267Z,99.55
2022-09-28T13:55:32.888Z,99.54
2022-09-28T13:58:14.549Z,99.25
2022-09-28T14:00:51.547Z,99.33
2022-09-28T14:03:42.945Z,99.20
2022-09-28T14:06:23.548Z,99.43
2022-09-28T14:08:59.116Z,99.72
2022-09-28T14:11:42.506Z,99.63
2022-09-28T14:14:11.308Z,99.73
2022-09-28T14:16:39.462Z,100.00
2022-09-28T14:19:12.218Z,100.00
2022-09-28T14:21:54.435Z,100.00
2022-09-28T14:24:32.675Z,100.00
2022-09-28T14:27:25.563Z,100.00
2022-09-28T14:30:06.434Z,100.00
2022-09-28T14:32:36.956Z,100.00
2022-09-28T14:35:18.632Z,100.00
2022-09-28T17:55:13.982Z,100.00
2022-09-28T17:57:40.826Z,100.00
2022-09-28T18:00:08.030Z,100.00
2022-09-28T18:02:34.523Z,100.00
2022-09-28T18:05:01.005Z,100.00
2022-09-28T18:07:30.943Z,99.87
2022-09-28T18:09:58.182Z,100.00
2022-09-28T18:12:25.022Z,100.00
2022-09-28T18:14:52.096Z,100.00
2022-09-28T18:17:18.563Z,100.00
2022-09-28T18:19:45.085Z,100.00
2022-09-28T18:22:11.486Z,100.00
2022-09-28T18:24:37.926Z,99.91
2022-09-28T18:27:04.414Z,100.00
2022-09-28T18:29:33.332Z,100.00
2022-09-28T18:32:00.440Z,100.00
2022-09-28T18:34:26.882Z,100.00
2022-09-28T18:36:53.423Z,100.00
2022-09-28T18:39:20.018Z,100.00
2022-09-28T18:41:46.650Z,100.00
2022-09-28T18:44:13.161Z,100.00
2022-09-28T18:46:42.581Z,100.00
2022-09-28T18:49:09.215Z,100.00
2022-09-28T18:51:35.740Z,100.00
2022-09-28T18:54:07.052Z,100.00
2022-09-28T18:56:36.952Z,100.00
2022-09-28T18:59:11.974Z,100.00
2022-09-28T19:01:38.930Z,100.00
2022-09-28T19:04:07.269Z,100.00
2022-09-28T19:06:34.475Z,100.00
2022-09-28T19:09:01.085Z,100.00
2022-09-28T19:11:28.593Z,100.00
2022-09-28T19:13:55.850Z,100.00
2022-09-28T19:16:25.197Z,100.00
2022-09-28T19:18:53.386Z,100.00
2022-09-28T19:21:20.178Z,100.00
2022-09-28T19:23:49.796Z,100.00
2022-09-28T19:26:20.729Z,100.00
2022-09-28T19:28:48.567Z,100.00
2022-09-28T19:31:15.125Z,100.00
2022-09-28T19:33:41.740Z,100.00
2022-09-28T19:36:10.690Z,100.00
2022-09-28T19:38:39.208Z,100.00
2022-09-28T19:41:11.026Z,100.00
2022-09-28T19:43:38.282Z,100.00
2022-09-28T19:46:06.205Z,100.00
2022-09-28T19:48:34.384Z,100.00
2022-09-28T19:51:06.158Z,100.00
2022-09-28T19:53:38.003Z,100.00
2022-09-28T19:56:05.654Z,100.00
2022-09-28T19:58:35.626Z,100.00
2022-09-28T20:01:06.906Z,100.00
2022-09-28T20:03:34.259Z,100.00
2022-09-28T20:06:01.791Z,100.00
2022-09-28T20:08:30.108Z,99.68
2022-09-28T20:10:59.566Z,99.82
2022-09-28T20:13:31.711Z,99.53
2022-09-28T20:16:12.650Z,99.75
2022-09-28T20:18:43.699Z,99.58
2022-09-28T20:21:18.030Z,99.96
2022-09-28T20:23:45.931Z,99.64
2022-09-28T20:26:13.188Z,99.83
2022-09-28T20:28:40.455Z,99.90
2022-09-28T20:31:20.304Z,99.81
2022-09-28T20:33:47.568Z,99.66
2022-09-28T20:36:21.539Z,99.76
2022-09-28T20:38:54.762Z,99.49
2022-09-28T20:41:23.223Z,99.48
2022-09-28T20:43:55.743Z,99.64
2022-09-28T20:46:23.449Z,99.63
2022-09-28T20:48:50.695Z,99.72
2022-09-28T20:51:19.938Z,99.26
2022-09-28T20:53:52.058Z,99.42
2022-09-28T20:56:21.350Z,99.22
2022-09-28T20:58:50.233Z,99.44
2022-09-28T21:01:28.594Z,98.93
2022-09-28T21:04:00.082Z,98.97
2022-09-28T21:06:29.081Z,98.73
2022-09-28T21:08:55.549Z,98.65
2022-09-28T21:11:23.890Z,98.95
2022-09-28T21:13:55.116Z,99.09
2022-09-28T21:16:21.581Z,99.08
2022-09-28T21:18:48.047Z,99.13
2022-09-28T21:21:17.096Z,98.92
2022-09-28T21:23:46.813Z,98.58
2022-09-28T21:26:25.364Z,97.97
2022-09-28T21:28:56.088Z,98.25
2022-09-28T21:31:28.795Z,98.33
2022-09-28T21:33:56.111Z,98.79
2022-09-28T21:36:22.515Z,98.12
2022-09-28T21:38:49.368Z,98.05
2022-09-28T21:41:15.930Z,97.83
2022-09-28T21:43:42.372Z,98.15
2022-09-28T21:46:10.235Z,97.80
2022-09-28T21:48:36.690Z,97.91
2022-09-28T21:51:09.149Z,97.57
2022-09-28T21:53:37.378Z,97.44
2022-09-28T21:56:06.197Z,97.51
2022-09-28T21:58:34.027Z,97.15
2022-09-28T22:01:15.411Z,97.48
2022-09-28T22:03:43.959Z,97.17
2022-09-28T22:06:11.314Z,97.06
2022-09-28T22:08:38.655Z,97.05
2022-09-28T22:11:14.029Z,96.72
2022-09-28T22:13:48.278Z,96.80
2022-09-28T22:16:17.388Z,96.98
2022-09-28T22:18:44.422Z,96.64
2022-09-28T22:21:14.709Z,96.10
2022-09-28T22:23:41.150Z,95.83
2022-09-28T22:26:11.346Z,96.17
2022-09-28T22:28:39.613Z,96.32
2022-09-28T22:31:06.344Z,96.48
2022-09-28T22:33:34.051Z,96.25
2022-09-28T22:36:00.582Z,95.94
2022-09-28T22:38:28.078Z,95.87
2022-09-28T22:40:55.952Z,95.75
2022-09-28T22:43:24.038Z,95.54
2022-09-28T22:45:59.987Z,95.68
2022-09-28T22:48:26.550Z,95.46
2022-09-28T22:50:52.992Z,95.17
2022-09-28T22:53:19.457Z,94.99
2022-09-28T22:55:45.900Z,94.43
2022-09-28T22:58:12.925Z,94.77
2022-09-28T23:00:39.869Z,94.72
2022-09-28T23:03:06.374Z,94.87
2022-09-28T23:05:32.874Z,94.96
2022-09-28T23:07:59.340Z,94.83
2022-09-28T23:10:25.818Z,94.45
2022-09-28T23:12:56.940Z,94.53
2022-09-28T23:15:23.378Z,94.61
2022-09-28T23:17:53.000Z,94.51
2022-09-28T23:20:20.769Z,94.62
2022-09-28T23:22:50.544Z,94.47
2022-09-28T23:25:18.334Z,94.40
2022-09-28T23:27:48.926Z,94.11
2022-09-28T23:30:17.079Z,93.91
2022-09-28T23:32:43.868Z,93.48
2022-09-28T23:35:10.959Z,93.38
2022-09-28T23:37:38.113Z,93.47
2022-09-28T23:40:06.034Z,93.31
2022-09-28T23:42:33.028Z,93.66
2022-09-28T23:44:59.472Z,93.97
2022-09-28T23:47:25.975Z,93.96
2022-09-28T23:49:52.384Z,93.93
2022-09-28T23:52:18.839Z,93.79
2022-09-28T23:54:45.320Z,93.80
2022-09-28T23:57:11.797Z,93.86
2022-09-28T23:59:38.645Z,93.71
